Nearby METAR Reports

 

KIKK - Kankakee, Illinois, USA
Distance from station: S 7mi, 12km
Updated: Mon, 20-Nov-2017 8:55am CST
Clear
Clear
 Wind from SSW
Wind: SSW 20 mph , 31 km/h, Gust: 26 mph , 43 km/h
Temperature: 37°F , 3°C
Wind Chill: 27°F , -3°C
Dew Point: 27°F , -3°C
Humidity: 65%
Barometer: 30.00 inHg , 1015.9 hPa
Clouds: Clear
Visibility: 10 miles , 16 km
2017/11/20 14:55 KIKK 201455Z AUTO 21017G23KT 10SM CLR 03/M03 A3000 RMK AO2 T00311030
KIGQ - Chicago/Lansing, Illinois, USA
Distance from station: NNE 29mi, 47km
Updated: Mon, 20-Nov-2017 8:55am CST
Clear
Clear
 Wind from SW
Wind: SW 16 mph , 26 km/h, Gust: 24 mph , 39 km/h
Temperature: 39°F , 4°C
Wind Chill: 30°F , -1°C
Dew Point: 30°F , -1°C
Humidity: 70%
Barometer: 29.97 inHg , 1014.9 hPa
Clouds: Clear
Visibility: 10 miles , 16 km
2017/11/20 14:55 KIGQ 201455Z AUTO 22014G21KT 10SM CLR 04/M01 A2997 RMK AO2 T00351014
 
KJOT - Joliet, Illinois, USA
Distance from station: NW 30mi, 48km
Updated: Mon, 20-Nov-2017 8:55am CST
Clear
Clear
 Wind from SSW
Wind: SSW 13 mph , 20 km/h, Gust: 18 mph , 30 km/h
Temperature: 41°F , 5°C
Wind Chill: 34°F , 1°C
Dew Point: 28°F , -2°C
Humidity: 61%
Barometer: 29.95 inHg , 1014.2 hPa
Clouds: Clear
Visibility: 10 miles , 16 km
2017/11/20 14:55 KJOT 201455Z AUTO 21011G16KT 10SM CLR 05/M02 A2995 RMK AO2 T00451017
KLOT - Romeoville/Chi, Illinois, USA
Distance from station: NNW 34mi, 55km
Updated: Mon, 20-Nov-2017 8:55am CST
Clear
Clear
 Wind from SSW
Wind: SSW 16 mph , 26 km/h, Gust: 20 mph , 31 km/h
Temperature: 39°F , 4°C
Wind Chill: 30°F , -1°C
Dew Point: 28°F , -2°C
Humidity: 65%
Barometer: 29.95 inHg , 1014.2 hPa
Clouds: Clear
Visibility: 10 miles , 16 km
2017/11/20 14:55 KLOT 201455Z AUTO 21014G17KT 10SM CLR 04/M02 A2995 RMK AO2 T00401020
 
KC09 - Morris-Washburn, Illinois, USA
Distance from station: WNW 36mi, 58km
Updated: Mon, 20-Nov-2017 8:55am CST
Clear
Clear
 Wind from SSW
Wind: SSW 17 mph , 28 km/h
Temperature: 39°F , 4°C
Wind Chill: 30°F , -1°C
Dew Point: 28°F , -2°C
Humidity: 65%
Barometer: 29.94 inHg , 1013.9 hPa
Clouds: Clear
Visibility: 10 miles , 16 km
2017/11/20 14:55 KC09 201455Z AUTO 21015KT 10SM CLR 04/M02 A2994 RMK AO2 T00361020
KRZL - Rensselaer, Indiana, USA
Distance from station: ESE 37mi, 59km
Updated: Mon, 20-Nov-2017 8:55am CST
Clear
Clear
 Wind from SSW
Wind: SSW 21 mph , 33 km/h, Gust: 26 mph , 43 km/h
Temperature: 37°F , 3°C
Wind Chill: 26°F , -3°C
Dew Point: 27°F , -3°C
Humidity: 65%
Barometer: 30.02 inHg , 1016.6 hPa
Clouds: Clear
Visibility: 10 miles , 16 km
2017/11/20 14:55 KRZL 201455Z AUTO 20018G23KT 10SM CLR 03/M03 A3002 RMK AO2
 
KGYY - Gary Regional, Indiana, USA
Distance from station: NE 37mi, 60km
Updated: Mon, 20-Nov-2017 8:45am CST
Partly cloudy
Partly cloudy
 Wind from SSW
Wind: SSW 12 mph , 19 km/h, Gust: 23 mph , 37 km/h
Temperature: 41°F , 5°C
Wind Chill: 34°F , 1°C
Dew Point: 25°F , -4°C
Humidity: 53%
Barometer: 29.98 inHg , 1015.2 hPa
Clouds: Partly cloudy
Visibility: 15 miles , 24 km
Cloud details: Partly cloudy 25000 ft
2017/11/20 14:45 KGYY 201445Z 21010G20KT 15SM SCT250 05/M04 A2998
KMDW - Chicago, Illinois, USA
Distance from station: N 42mi, 68km
Updated: Mon, 20-Nov-2017 8:53am CST
Partly cloudy
Partly cloudy
 Wind from SSW
Wind: SSW 15 mph , 24 km/h, Gust: 25 mph , 41 km/h
Temperature: 39°F , 4°C
Wind Chill: 31°F , -1°C
Dew Point: 27°F , -3°C
Humidity: 61%
Barometer: 29.93 inHg , 1013.5 hPa
Clouds: Partly cloudy
Visibility: 10 miles , 16 km
Cloud details: Partly cloudy 25000 ft
2017/11/20 14:53 KMDW 201453Z 21013G22KT 10SM SCT250 04/M03 A2993 RMK AO2 SLP146 T00441028 58014
 
KPNT - Pontiac, Illinois, USA
Distance from station: WSW 46mi, 74km
Updated: Mon, 20-Nov-2017 8:55am CST
Clear
Clear
 Wind from SSW
Wind: SSW 21 mph , 33 km/h, Gust: 26 mph , 43 km/h
Temperature: 39°F , 4°C
Wind Chill: 29°F , -2°C
Dew Point: 30°F , -1°C
Humidity: 70%
Barometer: 29.98 inHg , 1015.2 hPa
Clouds: Clear
Visibility: 10 miles , 16 km
2017/11/20 14:55 KPNT 201455Z AUTO 20018G23KT 10SM CLR 04/M01 A2998 RMK AO2 T00401013
KVPZ - Valparaiso, Indiana, USA
Distance from station: ENE 47mi, 75km
Updated: Mon, 20-Nov-2017 8:56am CST
Clear
Clear
 Wind from SSW
Wind: SSW 14 mph , 22 km/h, Gust: 24 mph , 39 km/h
Temperature: 39°F , 4°C
Wind Chill: 31°F , -1°C
Dew Point: 27°F , -3°C
Humidity: 61%
Barometer: 30.00 inHg , 1015.9 hPa
Clouds: Clear
Visibility: 10 miles , 16 km
2017/11/20 14:56 KVPZ 201456Z AUTO 21012G21KT 10SM CLR 04/M03 A3000 RMK AO2 SLP165 T00441028 56008 $